createdAt,value
2023-05-04T00:00:58.933Z,11.22
2023-05-04T00:03:31.429Z,11.19
2023-05-04T00:06:03.782Z,11.18
2023-05-04T00:08:36.099Z,11.19
2023-05-04T00:11:08.569Z,11.19
2023-05-04T00:13:40.916Z,11.21
2023-05-04T00:16:14.024Z,11.19
2023-05-04T00:18:46.708Z,11.20
2023-05-04T00:21:18.975Z,11.20
2023-05-04T00:23:51.249Z,11.19
2023-05-04T00:26:23.554Z,11.16
2023-05-04T00:28:56.018Z,11.16
2023-05-04T00:31:30.003Z,11.12
2023-05-04T00:34:02.257Z,11.10
2023-05-04T00:36:34.442Z,11.10
2023-05-04T00:39:06.983Z,11.06
2023-05-04T00:41:39.999Z,11.02
2023-05-04T00:44:12.697Z,11.01
2023-05-04T00:46:45.353Z,11.02
2023-05-04T00:49:21.477Z,11.00
2023-05-04T00:51:55.067Z,10.99
2023-05-04T00:54:28.958Z,10.91
2023-05-04T00:57:02.182Z,10.93
2023-05-04T00:59:34.497Z,10.94
2023-05-04T01:02:06.890Z,10.93
2023-05-04T01:04:42.633Z,10.89
2023-05-04T01:07:24.208Z,10.79
2023-05-04T01:10:00.882Z,10.85
2023-05-04T01:12:39.206Z,10.82
2023-05-04T01:15:13.456Z,10.81
2023-05-04T01:17:45.833Z,10.78
2023-05-04T01:20:19.803Z,10.75
2023-05-04T01:22:52.380Z,10.74
2023-05-04T01:25:29.553Z,10.71
2023-05-04T01:28:08.575Z,10.69
2023-05-04T01:30:45.118Z,10.60
2023-05-04T01:33:19.662Z,10.68
2023-05-04T01:35:52.893Z,10.64
2023-05-04T01:38:25.910Z,10.61
2023-05-04T01:40:59.187Z,10.52
2023-05-04T01:43:32.428Z,10.58
2023-05-04T01:46:04.677Z,10.56
2023-05-04T01:48:37.859Z,10.54
2023-05-04T01:51:11.035Z,10.53
2023-05-04T01:53:43.399Z,10.49
2023-05-04T01:56:16.071Z,10.47
2023-05-04T01:58:48.471Z,10.38
2023-05-04T02:01:21.262Z,10.45
2023-05-04T02:03:53.793Z,10.44
2023-05-04T02:06:26.336Z,10.40
2023-05-04T02:08:58.746Z,10.38
2023-05-04T02:11:31.698Z,10.37
2023-05-04T02:14:04.843Z,10.36
2023-05-04T02:16:37.469Z,10.33
2023-05-04T02:19:09.896Z,10.30
2023-05-04T02:21:43.108Z,10.27
2023-05-04T02:24:15.496Z,10.28
2023-05-04T02:26:48.923Z,10.28
2023-05-04T02:29:21.276Z,10.27
2023-05-04T02:31:53.572Z,10.25
2023-05-04T02:34:26.094Z,10.18
2023-05-04T02:37:00.093Z,10.19
2023-05-04T02:39:32.660Z,10.10
2023-05-04T02:42:05.133Z,10.17
2023-05-04T02:44:37.578Z,10.14
2023-05-04T02:47:10.139Z,10.12
2023-05-04T02:49:43.599Z,10.09
2023-05-04T02:52:17.013Z,10.07
2023-05-04T02:54:51.155Z,10.04
2023-05-04T02:57:25.278Z,10.03
2023-05-04T02:59:58.129Z,9.99
2023-05-04T03:02:35.108Z,9.97
2023-05-04T03:05:09.279Z,9.88
2023-05-04T03:07:44.255Z,9.96
2023-05-04T03:10:15.675Z,9.93
2023-05-04T03:12:49.996Z,9.84
2023-05-04T03:15:22.488Z,9.89
2023-05-04T03:17:55.170Z,9.89
2023-05-04T03:20:29.070Z,9.88
2023-05-04T03:23:03.673Z,9.84
2023-05-04T03:25:36.173Z,9.85
2023-05-04T03:28:12.748Z,9.85
2023-05-04T03:30:45.765Z,9.86
2023-05-04T03:33:18.010Z,9.84
2023-05-04T03:35:50.425Z,9.84
2023-05-04T03:38:23.362Z,9.84
2023-05-04T03:40:56.509Z,9.84
2023-05-04T03:43:29.797Z,9.81
2023-05-04T03:46:04.089Z,9.81
2023-05-04T03:48:36.377Z,9.80
2023-05-04T03:51:10.404Z,9.77
2023-05-04T03:53:44.808Z,9.78
2023-05-04T03:56:18.208Z,9.76
2023-05-04T03:58:51.275Z,9.78
2023-05-04T04:01:26.632Z,9.79
2023-05-04T04:03:59.820Z,9.80
2023-05-04T04:06:32.482Z,9.73
2023-05-04T04:09:05.388Z,9.81
2023-05-04T04:11:37.652Z,9.81
2023-05-04T04:14:10.337Z,9.82
2023-05-04T04:16:42.807Z,9.85
2023-05-04T04:19:15.997Z,9.86
2023-05-04T04:21:48.920Z,9.88
2023-05-04T04:24:21.384Z,9.89
2023-05-04T04:26:53.791Z,9.90
2023-05-04T04:29:27.328Z,9.93
2023-05-04T04:32:01.045Z,9.94
2023-05-04T04:34:36.207Z,9.95
2023-05-04T04:37:08.632Z,9.99
2023-05-04T04:39:40.890Z,10.04
2023-05-04T04:42:15.803Z,10.09
2023-05-04T04:44:49.577Z,10.16
2023-05-04T04:47:21.800Z,10.20
2023-05-04T04:49:54.211Z,10.26
2023-05-04T04:52:27.904Z,10.30
2023-05-04T04:55:01.593Z,10.34
2023-05-04T04:57:33.992Z,10.36
2023-05-04T05:00:09.610Z,10.42
2023-05-04T05:02:42.011Z,10.47
2023-05-04T05:05:14.896Z,10.52
2023-05-04T05:07:47.706Z,10.55
2023-05-04T05:10:21.145Z,10.61
2023-05-04T05:12:53.622Z,10.65
2023-05-04T05:15:26.369Z,10.70
2023-05-04T05:17:59.479Z,10.76
2023-05-04T05:20:31.953Z,10.80
2023-05-04T05:23:10.786Z,10.84
2023-05-04T05:25:44.732Z,10.90
2023-05-04T05:28:17.626Z,10.96
2023-05-04T05:30:52.033Z,11.04
2023-05-04T05:33:25.008Z,11.07
2023-05-04T05:35:58.587Z,11.15
2023-05-04T05:38:33.705Z,11.18
2023-05-04T05:41:10.158Z,11.24
2023-05-04T05:43:42.990Z,11.30
2023-05-04T05:46:15.628Z,11.35
2023-05-04T05:48:48.777Z,11.42
2023-05-04T05:51:21.061Z,11.47
2023-05-04T05:53:53.610Z,11.53
2023-05-04T05:56:27.218Z,11.61
2023-05-04T05:59:00.174Z,11.65
2023-05-04T06:01:32.700Z,11.73
2023-05-04T06:04:04.934Z,11.80
2023-05-04T06:06:37.459Z,11.88
2023-05-04T06:09:10.955Z,11.94
2023-05-04T06:11:43.299Z,12.03
2023-05-04T06:14:15.572Z,12.09
2023-05-04T06:16:48.075Z,12.18
2023-05-04T06:19:20.539Z,12.21
2023-05-04T06:21:53.028Z,12.32
2023-05-04T06:24:27.081Z,12.39
2023-05-04T06:26:59.794Z,12.41
2023-05-04T06:29:32.191Z,12.50
2023-05-04T06:32:05.424Z,12.62
2023-05-04T06:34:37.709Z,12.70
2023-05-04T06:37:10.028Z,12.71
2023-05-04T06:39:42.330Z,12.73
2023-05-04T06:42:14.815Z,12.94
2023-05-04T06:44:47.734Z,13.02
2023-05-04T06:47:19.992Z,13.13
2023-05-04T06:49:52.324Z,13.12
2023-05-04T06:52:24.543Z,13.19
2023-05-04T06:54:57.126Z,13.27
2023-05-04T06:57:30.401Z,13.46
2023-05-04T07:00:03.856Z,13.55
2023-05-04T07:02:36.166Z,13.63
2023-05-04T07:05:09.682Z,13.70
2023-05-04T07:07:41.828Z,13.78
2023-05-04T07:10:15.219Z,13.67
2023-05-04T07:12:47.458Z,13.77
2023-05-04T07:15:19.736Z,13.86
2023-05-04T07:17:52.247Z,14.00
2023-05-04T07:20:26.526Z,14.04
2023-05-04T07:22:59.051Z,14.16
2023-05-04T07:25:32.089Z,14.20
2023-05-04T07:28:04.837Z,14.12
2023-05-04T07:30:37.213Z,14.34
2023-05-04T07:33:09.602Z,14.47
2023-05-04T07:35:42.075Z,14.52
2023-05-04T07:38:14.531Z,14.61
2023-05-04T07:40:46.895Z,14.57
2023-05-04T07:43:19.054Z,14.78
2023-05-04T07:45:53.714Z,14.75
2023-05-04T07:48:26.349Z,14.78
2023-05-04T07:50:59.054Z,14.85
2023-05-04T07:53:31.466Z,14.89
2023-05-04T07:56:13.764Z,14.94
2023-05-04T07:58:47.618Z,14.97
2023-05-04T08:01:19.764Z,15.09
2023-05-04T08:03:51.926Z,15.14
2023-05-04T08:06:24.323Z,15.25
2023-05-04T08:08:56.784Z,15.31
2023-05-04T08:11:29.132Z,15.36
2023-05-04T08:14:01.585Z,15.49
2023-05-04T08:16:33.879Z,15.49
2023-05-04T08:19:06.082Z,15.41
2023-05-04T08:21:38.143Z,15.52
2023-05-04T08:24:10.835Z,15.62
2023-05-04T08:26:45.331Z,15.62
2023-05-04T08:29:20.139Z,15.74
2023-05-04T08:31:55.893Z,15.79
2023-05-04T08:34:29.460Z,15.95
2023-05-04T08:37:02.445Z,15.94
2023-05-04T08:39:34.640Z,15.95
2023-05-04T08:42:07.409Z,16.06
2023-05-04T08:44:40.338Z,16.14
2023-05-04T08:47:13.843Z,16.20
2023-05-04T08:49:46.114Z,16.36
2023-05-04T08:52:20.059Z,16.41
2023-05-04T08:54:54.419Z,16.42
2023-05-04T08:57:28.118Z,16.45
2023-05-04T09:00:02.665Z,16.49
2023-05-04T09:02:36.636Z,16.48
2023-05-04T09:05:10.772Z,16.57
2023-05-04T09:07:42.975Z,16.57
2023-05-04T09:10:15.339Z,16.48
2023-05-04T09:12:47.638Z,16.64
2023-05-04T09:15:21.004Z,16.76
2023-05-04T09:18:00.690Z,16.84
2023-05-04T09:20:43.730Z,16.91
2023-05-04T09:23:17.811Z,17.06
2023-05-04T09:25:50.952Z,17.03
2023-05-04T09:28:38.730Z,16.96
2023-05-04T09:31:12.019Z,16.98
2023-05-04T09:33:44.782Z,17.22
2023-05-04T09:36:18.769Z,17.21
2023-05-04T09:38:51.135Z,17.24
2023-05-04T09:41:34.466Z,17.30
2023-05-04T09:44:06.956Z,17.60
2023-05-04T09:46:39.334Z,17.67
2023-05-04T09:49:12.814Z,17.74
2023-05-04T09:51:45.579Z,17.75
2023-05-04T09:54:19.956Z,17.64
2023-05-04T09:56:55.988Z,17.62
2023-05-04T09:59:31.615Z,17.59
2023-05-04T10:02:10.907Z,17.80
2023-05-04T10:04:55.191Z,17.97
2023-05-04T10:07:30.858Z,18.17
2023-05-04T10:10:03.657Z,18.15
2023-05-04T10:12:35.836Z,18.12
2023-05-04T10:15:11.564Z,18.21
2023-05-04T10:17:59.904Z,18.18
2023-05-04T10:20:52.104Z,18.11
2023-05-04T10:23:47.365Z,18.38
2023-05-04T10:26:51.432Z,18.68
2023-05-04T10:29:25.973Z,18.86
2023-05-04T10:31:59.719Z,18.88
2023-05-04T10:34:33.694Z,18.63
2023-05-04T10:37:16.749Z,18.68
2023-05-04T10:39:55.397Z,18.80
2023-05-04T10:42:28.789Z,18.98
2023-05-04T10:45:01.010Z,19.15
2023-05-04T10:47:35.873Z,19.30
2023-05-04T10:50:07.509Z,19.41
2023-05-04T10:52:50.954Z,19.32
2023-05-04T10:55:26.042Z,19.12
2023-05-04T10:57:58.627Z,19.35
2023-05-04T11:00:41.016Z,19.51
2023-05-04T11:03:14.233Z,19.62
2023-05-04T11:05:50.847Z,19.71
2023-05-04T11:08:25.414Z,19.77
2023-05-04T11:11:07.895Z,19.85
2023-05-04T11:13:47.264Z,19.90
2023-05-04T11:16:25.930Z,19.95
2023-05-04T11:19:12.541Z,20.10
2023-05-04T11:21:45.047Z,20.20
2023-05-04T11:24:17.251Z,20.28
2023-05-04T11:26:50.155Z,20.36
2023-05-04T11:29:22.550Z,20.41
2023-05-04T11:31:58.085Z,20.45
2023-05-04T11:34:30.441Z,20.52
2023-05-04T11:37:05.666Z,20.63
2023-05-04T11:39:38.285Z,20.72
2023-05-04T11:42:12.358Z,20.81
2023-05-04T11:44:45.384Z,20.81
2023-05-04T11:47:18.619Z,20.88
2023-05-04T11:49:51.119Z,20.93
2023-05-04T11:52:27.526Z,20.89
2023-05-04T11:55:00.271Z,20.96
2023-05-04T11:57:32.541Z,21.01
2023-05-04T12:00:05.642Z,21.12
2023-05-04T12:02:38.229Z,21.20
2023-05-04T12:05:16.041Z,21.25
2023-05-04T12:07:48.968Z,21.21
2023-05-04T12:10:30.324Z,21.20
2023-05-04T12:13:02.876Z,21.28
2023-05-04T12:15:36.631Z,21.40
2023-05-04T12:18:08.868Z,21.48
2023-05-04T12:20:41.196Z,21.51
2023-05-04T12:23:13.698Z,21.50
2023-05-04T12:25:57.345Z,21.54
2023-05-04T12:28:32.019Z,21.43
2023-05-04T12:31:05.106Z,21.38
2023-05-04T12:33:37.791Z,21.42
2023-05-04T12:36:10.954Z,21.57
2023-05-04T12:38:43.575Z,21.60
2023-05-04T12:41:15.814Z,21.73
2023-05-04T12:43:48.097Z,21.77
2023-05-04T12:46:22.319Z,21.83
2023-05-04T12:48:54.577Z,21.87
2023-05-04T12:51:26.965Z,21.91
2023-05-04T12:53:59.646Z,21.84
2023-05-04T12:56:32.510Z,21.81
2023-05-04T12:59:04.876Z,21.63
2023-05-04T13:01:37.450Z,21.65
2023-05-04T13:04:09.996Z,21.73
2023-05-04T13:06:42.942Z,21.82
2023-05-04T13:09:15.771Z,21.89
2023-05-04T13:11:48.704Z,21.97
2023-05-04T13:14:20.986Z,21.93
2023-05-04T13:16:53.984Z,22.01
2023-05-04T13:19:27.427Z,22.02
2023-05-04T13:21:59.888Z,22.05
2023-05-04T13:24:32.264Z,22.09
2023-05-04T13:27:04.595Z,22.25
2023-05-04T13:29:37.001Z,22.35
2023-05-04T13:32:09.494Z,22.44
2023-05-04T13:34:42.454Z,22.52
2023-05-04T13:37:18.536Z,22.27
2023-05-04T13:39:51.197Z,22.27
2023-05-04T13:42:24.189Z,22.27
2023-05-04T13:44:57.388Z,22.34
2023-05-04T13:47:29.670Z,22.33
2023-05-04T13:50:02.120Z,22.63
2023-05-04T13:52:34.621Z,22.54
2023-05-04T13:55:08.126Z,22.31
2023-05-04T13:57:40.628Z,22.31
2023-05-04T14:00:16.610Z,22.36
2023-05-04T14:02:50.589Z,22.48
2023-05-04T14:05:23.482Z,22.32
2023-05-04T14:07:55.854Z,22.19
2023-05-04T14:10:28.559Z,22.20
2023-05-04T14:13:00.952Z,22.14
2023-05-04T14:15:33.243Z,22.25
2023-05-04T14:18:05.831Z,22.11
2023-05-04T14:20:38.480Z,22.14
2023-05-04T14:23:11.057Z,22.33
2023-05-04T14:25:44.138Z,22.31
2023-05-04T14:28:16.406Z,22.37
2023-05-04T14:30:48.761Z,22.40
2023-05-04T14:33:21.038Z,22.46
2023-05-04T14:35:53.375Z,22.50
2023-05-04T14:38:25.852Z,22.52
2023-05-04T14:40:59.850Z,22.90
2023-05-04T14:43:32.499Z,22.57
2023-05-04T14:46:04.934Z,22.42
2023-05-04T14:48:37.209Z,22.31
2023-05-04T14:51:09.471Z,22.50
2023-05-04T14:53:42.185Z,22.50
2023-05-04T14:56:14.490Z,22.34
2023-05-04T14:58:47.237Z,22.19
2023-05-04T15:01:19.676Z,22.19
2023-05-04T15:03:51.903Z,22.15
2023-05-04T15:06:24.304Z,22.28
2023-05-04T15:08:56.693Z,22.15
2023-05-04T15:11:29.442Z,22.30
2023-05-04T15:14:02.124Z,22.36
2023-05-04T15:16:35.453Z,22.23
2023-05-04T15:19:08.024Z,22.12
2023-05-04T15:21:40.497Z,22.22
2023-05-04T15:24:12.713Z,22.06
2023-05-04T15:26:46.093Z,21.96
2023-05-04T15:29:18.272Z,21.87
2023-05-04T15:31:50.927Z,21.90
2023-05-04T15:34:23.091Z,21.96
2023-05-04T15:36:55.779Z,21.89
2023-05-04T15:39:28.262Z,21.81
2023-05-04T15:42:01.415Z,21.69
2023-05-04T15:44:33.938Z,21.65
2023-05-04T15:47:08.973Z,21.59
2023-05-04T15:49:41.418Z,21.52
2023-05-04T15:52:13.979Z,21.45
2023-05-04T15:54:47.388Z,21.42
2023-05-04T15:57:19.439Z,21.36
2023-05-04T15:59:51.532Z,21.28
2023-05-04T16:02:24.111Z,21.13
2023-05-04T16:04:56.526Z,21.10
2023-05-04T16:07:28.738Z,21.06
2023-05-04T16:10:01.198Z,20.94
2023-05-04T16:12:34.475Z,21.00
2023-05-04T16:15:08.033Z,20.95
2023-05-04T16:17:40.491Z,20.84
2023-05-04T16:20:14.893Z,20.77
2023-05-04T16:22:48.170Z,20.68
2023-05-04T16:25:20.889Z,20.59
2023-05-04T16:27:53.516Z,20.48
2023-05-04T16:30:30.145Z,20.44
2023-05-04T16:33:02.492Z,20.33
2023-05-04T16:35:36.469Z,20.22
2023-05-04T16:38:08.948Z,20.19
2023-05-04T16:40:42.693Z,20.06
2023-05-04T16:43:15.495Z,20.06
2023-05-04T16:45:48.369Z,19.90
2023-05-04T16:48:20.760Z,19.81
2023-05-04T16:50:53.033Z,19.73
2023-05-04T16:53:25.346Z,19.67
2023-05-04T16:55:57.687Z,19.60
2023-05-04T16:58:29.868Z,19.46
2023-05-04T17:01:02.291Z,19.38
2023-05-04T17:03:35.694Z,19.24
2023-05-04T17:06:08.516Z,19.21
2023-05-04T17:08:40.693Z,19.16
2023-05-04T17:11:12.913Z,19.16
2023-05-04T17:13:45.566Z,19.12
2023-05-04T17:16:18.103Z,19.07
2023-05-04T17:18:50.579Z,19.00
2023-05-04T17:21:22.907Z,18.88
2023-05-04T17:23:55.405Z,18.85
2023-05-04T17:26:27.613Z,18.85
2023-05-04T17:28:59.968Z,18.90
2023-05-04T17:31:32.560Z,18.80
2023-05-04T17:34:05.012Z,18.80
2023-05-04T17:36:37.700Z,18.76
2023-05-04T17:39:10.054Z,18.74
2023-05-04T17:41:42.915Z,18.72
2023-05-04T17:44:15.921Z,18.70
2023-05-04T17:46:48.669Z,18.69
2023-05-04T17:49:21.084Z,18.64
2023-05-04T17:51:53.305Z,18.60
2023-05-04T17:54:25.550Z,18.58
2023-05-04T17:56:57.956Z,18.55
2023-05-04T17:59:30.105Z,18.50
2023-05-04T18:02:03.458Z,18.47
2023-05-04T18:04:37.632Z,18.43
2023-05-04T18:07:09.918Z,18.41
2023-05-04T18:09:42.271Z,18.37
2023-05-04T18:12:14.690Z,18.34
2023-05-04T18:14:47.547Z,18.30
2023-05-04T18:17:20.143Z,18.25
2023-05-04T18:19:52.595Z,18.22
2023-05-04T18:22:25.100Z,18.18
2023-05-04T18:24:57.617Z,18.14
2023-05-04T18:27:34.483Z,18.10
2023-05-04T18:30:09.084Z,18.06
2023-05-04T18:32:41.420Z,18.03
2023-05-04T18:35:13.667Z,17.99
2023-05-04T18:37:45.935Z,17.95
2023-05-04T18:40:18.357Z,17.91
2023-05-04T18:42:50.780Z,17.89
2023-05-04T18:45:23.522Z,17.85
2023-05-04T18:47:56.085Z,17.84
2023-05-04T18:50:29.004Z,17.80
2023-05-04T18:53:01.523Z,17.77
2023-05-04T18:55:33.632Z,17.73
2023-05-04T18:58:05.993Z,17.71
2023-05-04T19:00:38.451Z,17.68
2023-05-04T19:03:10.803Z,17.64
2023-05-04T19:05:44.372Z,17.60
2023-05-04T19:08:16.539Z,17.49
2023-05-04T19:10:49.506Z,17.52
2023-05-04T19:13:21.988Z,17.49
2023-05-04T19:15:54.927Z,17.47
2023-05-04T19:18:27.747Z,17.46
2023-05-04T19:21:04.991Z,17.44
2023-05-04T19:23:37.159Z,17.41
2023-05-04T19:26:09.484Z,17.39
2023-05-04T19:28:41.993Z,17.36
2023-05-04T19:31:14.444Z,17.32
2023-05-04T19:33:48.710Z,17.29
2023-05-04T19:36:21.368Z,17.25
2023-05-04T19:38:53.764Z,17.22
2023-05-04T19:41:26.716Z,17.18
2023-05-04T19:43:59.276Z,17.16
2023-05-04T19:46:32.093Z,17.14
2023-05-04T19:49:04.799Z,17.13
2023-05-04T19:51:36.981Z,17.13
2023-05-04T19:54:11.130Z,17.11
2023-05-04T19:56:42.454Z,17.07
2023-05-04T19:59:14.696Z,17.04
2023-05-04T20:01:46.874Z,17.01
2023-05-04T20:04:19.566Z,16.98
2023-05-04T20:06:51.882Z,16.95
2023-05-04T20:09:24.227Z,16.91
2023-05-04T20:11:56.900Z,16.86
2023-05-04T20:14:29.199Z,16.82
2023-05-04T20:17:02.371Z,16.70
2023-05-04T20:19:34.787Z,16.73
2023-05-04T20:22:07.376Z,16.61
2023-05-04T20:24:40.881Z,16.59
2023-05-04T20:27:13.142Z,16.62
2023-05-04T20:29:45.492Z,16.61
2023-05-04T20:32:17.831Z,16.58
2023-05-04T20:34:50.276Z,16.56
2023-05-04T20:37:22.586Z,16.54
2023-05-04T20:39:55.560Z,16.53
2023-05-04T20:42:28.568Z,16.52
2023-05-04T20:45:00.676Z,16.50
2023-05-04T20:47:33.473Z,16.48
2023-05-04T20:50:06.637Z,16.46
2023-05-04T20:52:39.542Z,16.42
2023-05-04T20:55:13.181Z,16.40
2023-05-04T20:57:46.032Z,16.38
2023-05-04T21:00:20.009Z,16.37
2023-05-04T21:02:52.841Z,16.35
2023-05-04T21:05:25.155Z,16.33
2023-05-04T21:07:57.691Z,16.30
2023-05-04T21:10:30.044Z,16.28
2023-05-04T21:13:02.492Z,16.25
2023-05-04T21:15:34.869Z,16.24
2023-05-04T21:18:07.717Z,16.22
2023-05-04T21:20:40.114Z,16.20
2023-05-04T21:23:12.621Z,16.10
2023-05-04T21:25:44.923Z,16.17
2023-05-04T21:28:16.975Z,16.17
2023-05-04T21:30:49.159Z,16.15
2023-05-04T21:33:21.630Z,16.14
2023-05-04T21:35:54.418Z,16.13
2023-05-04T21:38:26.715Z,16.10
2023-05-04T21:40:58.884Z,16.07
2023-05-04T21:43:31.052Z,16.07
2023-05-04T21:46:03.997Z,16.06
2023-05-04T21:48:36.773Z,16.05
2023-05-04T21:51:09.372Z,16.04
2023-05-04T21:53:43.713Z,16.02
2023-05-04T21:56:16.053Z,16.00
2023-05-04T21:58:48.371Z,15.98
2023-05-04T22:01:21.377Z,15.96
2023-05-04T22:03:54.040Z,15.95
2023-05-04T22:06:26.437Z,15.93
2023-05-04T22:08:58.627Z,15.91
2023-05-04T22:11:31.157Z,15.91
2023-05-04T22:14:03.436Z,15.88
2023-05-04T22:16:35.790Z,15.86
2023-05-04T22:19:08.160Z,15.82
2023-05-04T22:21:40.783Z,15.79
2023-05-04T22:24:13.663Z,15.78
2023-05-04T22:26:46.349Z,15.76
2023-05-04T22:29:18.708Z,15.75
2023-05-04T22:31:50.994Z,15.75
2023-05-04T22:34:23.175Z,15.73
2023-05-04T22:36:55.692Z,15.69
2023-05-04T22:39:28.161Z,15.68
2023-05-04T22:42:01.969Z,15.66
2023-05-04T22:44:36.308Z,15.64
2023-05-04T22:47:09.117Z,15.62
2023-05-04T22:49:42.238Z,15.61
2023-05-04T22:52:14.741Z,15.61
2023-05-04T22:54:47.044Z,15.51
2023-05-04T22:57:19.621Z,15.49
2023-05-04T22:59:51.988Z,15.55
2023-05-04T23:02:24.775Z,15.50
2023-05-04T23:04:57.753Z,15.48
2023-05-04T23:07:30.614Z,15.45
2023-05-04T23:10:03.251Z,15.44
2023-05-04T23:12:35.475Z,15.43
2023-05-04T23:15:09.994Z,15.42
2023-05-04T23:17:42.532Z,15.39
2023-05-04T23:20:16.906Z,15.37
2023-05-04T23:22:49.058Z,15.35
2023-05-04T23:25:21.431Z,15.31
2023-05-04T23:27:53.610Z,15.28
2023-05-04T23:30:25.970Z,15.26
2023-05-04T23:32:58.769Z,15.23
2023-05-04T23:35:31.337Z,15.22
2023-05-04T23:38:04.341Z,15.18
2023-05-04T23:40:37.734Z,15.16
2023-05-04T23:43:09.864Z,15.14
2023-05-04T23:45:42.140Z,15.14
2023-05-04T23:48:14.920Z,15.14
2023-05-04T23:50:57.523Z,15.13
2023-05-04T23:53:30.332Z,15.11
2023-05-04T23:56:04.263Z,15.10
2023-05-04T23:58:37.553Z,15.10
